Rotterdam, Netherlands

11:33 AM CEST on August 28, 2015 (GMT +0200)
Orchidee | | Change Station
CLOSE
Current Station
Personal Weather Station
Location: Rotterdam, ZUID-HOLLAND
Elevation: 7 ft
Nearby Weather Stations

Elev 7 ft 51.94 °N, 4.47 °E | Updated 3 minutes ago

Mostly Cloudy
Mostly Cloudy
63.9 °F
Feels Like 63.9 °F
N
1.0
Wind Variable Wind from ESE
Gusts 4.0 mph

Today
High -- | Low -- °F
--% Chance of Precip.
Yesterday
High -- | Low -- °F
Precip. -- in
6:46 AM 8:39 PM
Waxing Gibbous, 97% visible
Pressure 30.04 in
Visibility 6.2 miles
Clouds Few 1300 ft
Mostly Cloudy 1600 ft
Mostly Cloudy 2100 ft
Dew Point 61 °F
Humidity 89%
Rainfall 0.00 in
Snow Depth Not available.
UV 3 out of 12
Pollen Not available.
Air Quality Not available.
Flu Activity Not available.
SPECI EHGR 280927Z AUTO 23006KT 9999 FEW013 BKN016 BKN021 17/14 Q1017 WHT 22007KT 9999 SCT024
Pressure 30.04 in
Visibility 6.2 miles
Clouds Few 1300 ft
Mostly Cloudy 1600 ft
Mostly Cloudy 2100 ft
Dew Point 61 °F
Humidity 89%
Rainfall 0.00 in
Snow Depth Not available.
UV 3 out of 12
Pollen Not available.
Air Quality Not available.
Flu Activity Not available.
SPECI EHGR 280927Z AUTO 23006KT 9999 FEW013 BKN016 BKN021 17/14 Q1017 WHT 22007KT 9999 SCT024

10-Day Weather Forecast

×

Almanac

Astronomy

Aug. 28, 2015 Rise Set
Actual Time
Civil Twilight
Nautical Twilight
Astronomical Twilight
Moon
Length of Visible Light
Length of Day
Tomorrow will be .
, % of the Moon is Illuminated

Today's Extremes

Country Highs Country Lows

Community

WunderPhotos

Upload Photos

1,850,352 photos uploaded!

WunderBlogs® & News

Nearby

Air Quality

  Air Quality AQ Index Pollutant
Not available.

Snow Depth

Station Depth Elevation

Earthquake Activity

City Distance Mag. Time & Date
Minimum magnitude displayed is 2.5.

Coastal Water Temperatures

Place Temperature

Stations

Nearby Weather Stations

Station Location Temp. Windchill Dew Point Humidity Wind Precip. Elev Updated Type